sensor_id;sensor_type;location;lat;lon;timestamp;pressure;altitude;pressure_sealevel;temperature;humidity
3917;BME280;1973;50.518;7.318;2023-07-30T00:00:48;100311.00;;;18.12;100.00
3917;BME280;1973;50.518;7.318;2023-07-30T00:03:16;100316.56;;;18.12;100.00
3917;BME280;1973;50.518;7.318;2023-07-30T00:05:42;100321.28;;;18.11;100.00
3917;BME280;1973;50.518;7.318;2023-07-30T00:08:09;100327.16;;;18.10;100.00
3917;BME280;1973;50.518;7.318;2023-07-30T00:10:35;100326.06;;;18.11;100.00
3917;BME280;1973;50.518;7.318;2023-07-30T00:13:02;100331.63;;;18.11;100.00
3917;BME280;1973;50.518;7.318;2023-07-30T00:15:29;100326.59;;;18.08;100.00
3917;BME280;1973;50.518;7.318;2023-07-30T00:17:56;100323.81;;;18.08;100.00
3917;BME280;1973;50.518;7.318;2023-07-30T00:20:22;100334.41;;;18.06;100.00
3917;BME280;1973;50.518;7.318;2023-07-30T00:22:49;100334.41;;;18.06;100.00
3917;BME280;1973;50.518;7.318;2023-07-30T00:25:15;100336.59;;;18.04;100.00
3917;BME280;1973;50.518;7.318;2023-07-30T00:27:42;100333.84;;;17.98;100.00
3917;BME280;1973;50.518;7.318;2023-07-30T00:30:09;100331.03;;;17.93;100.00
3917;BME280;1973;50.518;7.318;2023-07-30T00:32:36;100341.31;;;17.93;100.00
3917;BME280;1973;50.518;7.318;2023-07-30T00:35:10;100340.19;;;17.89;100.00
3917;BME280;1973;50.518;7.318;2023-07-30T00:37:37;100346.06;;;17.87;100.00
3917;BME280;1973;50.518;7.318;2023-07-30T00:40:04;100343.84;;;17.84;100.00
3917;BME280;1973;50.518;7.318;2023-07-30T00:42:30;100341.31;;;17.83;100.00
3917;BME280;1973;50.518;7.318;2023-07-30T00:44:57;100346.03;;;17.82;100.00
3917;BME280;1973;50.518;7.318;2023-07-30T00:47:25;100342.72;;;17.80;100.00
3917;BME280;1973;50.518;7.318;2023-07-30T00:49:52;100351.06;;;17.80;100.00
3917;BME280;1973;50.518;7.318;2023-07-30T00:52:20;100352.72;;;17.81;100.00
3917;BME280;1973;50.518;7.318;2023-07-30T00:54:48;100351.59;;;17.82;100.00
3917;BME280;1973;50.518;7.318;2023-07-30T00:57:16;100349.94;;;17.81;100.00
3917;BME280;1973;50.518;7.318;2023-07-30T00:59:46;100345.75;;;17.79;100.00
3917;BME280;1973;50.518;7.318;2023-07-30T01:02:13;100351.91;;;17.81;100.00
3917;BME280;1973;50.518;7.318;2023-07-30T01:04:40;100359.41;;;17.80;100.00
3917;BME280;1973;50.518;7.318;2023-07-30T01:07:07;100363.84;;;17.76;100.00
3917;BME280;1973;50.518;7.318;2023-07-30T01:09:33;100368.03;;;17.79;100.00
3917;BME280;1973;50.518;7.318;2023-07-30T01:12:02;100354.94;;;17.79;100.00
3917;BME280;1973;50.518;7.318;2023-07-30T01:14:30;100351.28;;;17.74;100.00
3917;BME280;1973;50.518;7.318;2023-07-30T01:16:57;100366.63;;;17.76;100.00
3917;BME280;1973;50.518;7.318;2023-07-30T01:19:24;100358.53;;;17.75;100.00
3917;BME280;1973;50.518;7.318;2023-07-30T01:21:50;100362.72;;;17.72;100.00
3917;BME280;1973;50.518;7.318;2023-07-30T01:24:17;100363.81;;;17.71;100.00
3917;BME280;1973;50.518;7.318;2023-07-30T01:26:46;100361.03;;;17.71;100.00
3917;BME280;1973;50.518;7.318;2023-07-30T01:29:57;100359.06;;;17.67;100.00
3917;BME280;1973;50.518;7.318;2023-07-30T01:32:26;100365.19;;;17.64;100.00
3917;BME280;1973;50.518;7.318;2023-07-30T01:34:55;100373.00;;;17.67;100.00
3917;BME280;1973;50.518;7.318;2023-07-30T01:37:23;100373.00;;;17.67;100.00
3917;BME280;1973;50.518;7.318;2023-07-30T01:39:50;100374.97;;;17.66;100.00
3917;BME280;1973;50.518;7.318;2023-07-30T01:42:17;100379.41;;;17.67;100.00
3917;BME280;1973;50.518;7.318;2023-07-30T01:44:44;100390.28;;;17.69;100.00
3917;BME280;1973;50.518;7.318;2023-07-30T01:47:10;100389.44;;;17.68;100.00
3917;BME280;1973;50.518;7.318;2023-07-30T01:49:37;100390.28;;;17.69;100.00
3917;BME280;1973;50.518;7.318;2023-07-30T01:52:04;100382.75;;;17.69;100.00
3917;BME280;1973;50.518;7.318;2023-07-30T01:54:30;100391.13;;;17.69;100.00
3917;BME280;1973;50.518;7.318;2023-07-30T01:56:57;100391.97;;;17.70;100.00
3917;BME280;1973;50.518;7.318;2023-07-30T01:59:23;100398.34;;;17.70;100.00
3917;BME280;1973;50.518;7.318;2023-07-30T02:01:50;100393.63;;;17.71;100.00
3917;BME280;1973;50.518;7.318;2023-07-30T02:04:17;100390.84;;;17.71;100.00
3917;BME280;1973;50.518;7.318;2023-07-30T02:06:44;100398.34;;;17.70;100.00
3917;BME280;1973;50.518;7.318;2023-07-30T02:09:11;100396.41;;;17.71;100.00
3917;BME280;1973;50.518;7.318;2023-07-30T02:11:37;100405.59;;;17.71;100.00
3917;BME280;1973;50.518;7.318;2023-07-30T02:14:04;100397.25;;;17.71;100.00
3917;BME280;1973;50.518;7.318;2023-07-30T02:16:31;100390.00;;;17.70;100.00
3917;BME280;1973;50.518;7.318;2023-07-30T02:18:57;100407.84;;;17.69;100.00
3917;BME280;1973;50.518;7.318;2023-07-30T02:21:24;100404.75;;;17.71;100.00
3917;BME280;1973;50.518;7.318;2023-07-30T02:23:50;100405.03;;;17.74;100.00
3917;BME280;1973;50.518;7.318;2023-07-30T02:26:17;100399.47;;;17.74;100.00
3917;BME280;1973;50.518;7.318;2023-07-30T02:28:43;100405.03;;;17.74;100.00
3917;BME280;1973;50.518;7.318;2023-07-30T02:31:10;100396.44;;;17.76;100.00
3917;BME280;1973;50.518;7.318;2023-07-30T02:33:37;100392.53;;;17.77;100.00
3917;BME280;1973;50.518;7.318;2023-07-30T02:36:03;100395.31;;;17.77;100.00
3917;BME280;1973;50.518;7.318;2023-07-30T02:38:30;100407.31;;;17.77;100.00
3917;BME280;1973;50.518;7.318;2023-07-30T02:40:56;100395.88;;;17.79;100.00
3917;BME280;1973;50.518;7.318;2023-07-30T02:43:23;100397.28;;;17.81;100.00
3917;BME280;1973;50.518;7.318;2023-07-30T02:45:50;100395.31;;;17.82;100.00
3917;BME280;1973;50.518;7.318;2023-07-30T02:48:16;100399.53;;;17.84;100.00
3917;BME280;1973;50.518;7.318;2023-07-30T02:50:43;100401.19;;;17.85;100.00
3917;BME280;1973;50.518;7.318;2023-07-30T02:53:10;100398.16;;;17.87;100.00
3917;BME280;1973;50.518;7.318;2023-07-30T02:55:36;100394.50;;;17.86;100.00
3917;BME280;1973;50.518;7.318;2023-07-30T02:58:03;100397.03;;;17.88;100.00
3917;BME280;1973;50.518;7.318;2023-07-30T03:00:29;100400.66;;;17.88;100.00
3917;BME280;1973;50.518;7.318;2023-07-30T03:02:56;100405.09;;;17.89;100.00
3917;BME280;1973;50.518;7.318;2023-07-30T03:05:23;100402.31;;;17.89;100.00
3917;BME280;1973;50.518;7.318;2023-07-30T03:07:49;100405.09;;;17.89;100.00
3917;BME280;1973;50.518;7.318;2023-07-30T03:10:16;100395.91;;;17.89;100.00
3917;BME280;1973;50.518;7.318;2023-07-30T03:12:42;100396.75;;;17.89;100.00
3917;BME280;1973;50.518;7.318;2023-07-30T03:15:09;100402.31;;;17.89;100.00
3917;BME280;1973;50.518;7.318;2023-07-30T03:17:36;100399.53;;;17.89;100.00
3917;BME280;1973;50.518;7.318;2023-07-30T03:20:02;100395.66;;;17.90;100.00
3917;BME280;1973;50.518;7.318;2023-07-30T03:22:30;100396.75;;;17.89;100.00
3917;BME280;1973;50.518;7.318;2023-07-30T03:24:57;100402.91;;;17.91;100.00
3917;BME280;1973;50.518;7.318;2023-07-30T03:27:23;100414.59;;;17.93;100.00
3917;BME280;1973;50.518;7.318;2023-07-30T03:29:50;100419.06;;;17.94;100.00
3917;BME280;1973;50.518;7.318;2023-07-30T03:32:16;100413.75;;;17.93;100.00
3917;BME280;1973;50.518;7.318;2023-07-30T03:34:43;100417.38;;;17.93;100.00
3917;BME280;1973;50.518;7.318;2023-07-30T03:37:09;100415.69;;;17.92;100.00
3917;BME280;1973;50.518;7.318;2023-07-30T03:39:36;100417.38;;;17.93;100.00
3917;BME280;1973;50.518;7.318;2023-07-30T03:42:03;100412.09;;;17.92;100.00
3917;BME280;1973;50.518;7.318;2023-07-30T03:44:29;100418.47;;;17.92;100.00
3917;BME280;1973;50.518;7.318;2023-07-30T03:46:56;100417.94;;;17.90;100.00
3917;BME280;1973;50.518;7.318;2023-07-30T03:49:22;100424.59;;;17.89;100.00
3917;BME280;1973;50.518;7.318;2023-07-30T03:51:49;100423.75;;;17.89;100.00
3917;BME280;1973;50.518;7.318;2023-07-30T03:54:15;100420.97;;;17.89;100.00
3917;BME280;1973;50.518;7.318;2023-07-30T03:56:42;100418.19;;;17.89;100.00
3917;BME280;1973;50.518;7.318;2023-07-30T03:59:09;100409.28;;;17.87;100.00
3917;BME280;1973;50.518;7.318;2023-07-30T04:01:35;100425.16;;;17.86;100.00
3917;BME280;1973;50.518;7.318;2023-07-30T04:04:02;100424.88;;;17.88;100.00
3917;BME280;1973;50.518;7.318;2023-07-30T04:06:29;100414.84;;;17.87;100.00
3917;BME280;1973;50.518;7.318;2023-07-30T04:08:55;100424.06;;;17.87;100.00
3917;BME280;1973;50.518;7.318;2023-07-30T04:11:22;100423.22;;;17.87;100.00
3917;BME280;1973;50.518;7.318;2023-07-30T04:13:49;100419.59;;;17.86;100.00
3917;BME280;1973;50.518;7.318;2023-07-30T04:16:15;100421.53;;;17.86;100.00
3917;BME280;1973;50.518;7.318;2023-07-30T04:18:42;100415.69;;;17.87;100.00
3917;BME280;1973;50.518;7.318;2023-07-30T04:21:08;100417.38;;;17.88;100.00
3917;BME280;1973;50.518;7.318;2023-07-30T04:23:35;100421.25;;;17.87;100.00
3917;BME280;1973;50.518;7.318;2023-07-30T04:26:01;100422.41;;;17.91;100.00
3917;BME280;1973;50.518;7.318;2023-07-30T04:28:28;100422.09;;;17.93;100.00
3917;BME280;1973;50.518;7.318;2023-07-30T04:30:55;100427.41;;;17.94;100.00
3917;BME280;1973;50.518;7.318;2023-07-30T04:33:21;100424.34;;;17.96;100.00
3917;BME280;1973;50.518;7.318;2023-07-30T04:35:48;100417.97;;;17.95;100.00
3917;BME280;1973;50.518;7.318;2023-07-30T04:38:14;100421.84;;;17.94;100.00
3917;BME280;1973;50.518;7.318;2023-07-30T04:40:41;100427.72;;;17.98;100.00
3917;BME280;1973;50.518;7.318;2023-07-30T04:43:07;100426.31;;;18.00;100.00
3917;BME280;1973;50.518;7.318;2023-07-30T04:45:34;100431.31;;;18.04;100.00
3917;BME280;1973;50.518;7.318;2023-07-30T04:48:01;100421.88;;;18.05;100.00
3917;BME280;1973;50.518;7.318;2023-07-30T04:50:27;100431.63;;;18.07;100.00
3917;BME280;1973;50.518;7.318;2023-07-30T04:52:54;100429.41;;;18.09;100.00
3917;BME280;1973;50.518;7.318;2023-07-30T04:55:20;100440.00;;;18.12;100.00
3917;BME280;1973;50.518;7.318;2023-07-30T04:57:47;100436.38;;;18.12;100.00
3917;BME280;1973;50.518;7.318;2023-07-30T05:00:14;100440.84;;;18.13;100.00
3917;BME280;1973;50.518;7.318;2023-07-30T05:02:40;100429.69;;;18.13;100.00
3917;BME280;1973;50.518;7.318;2023-07-30T05:05:07;100444.19;;;18.15;100.00
3917;BME280;1973;50.518;7.318;2023-07-30T05:07:34;100441.97;;;18.17;100.00
3917;BME280;1973;50.518;7.318;2023-07-30T05:10:00;100445.31;;;18.19;100.00
3917;BME280;1973;50.518;7.318;2023-07-30T05:12:27;100454.81;;;18.18;100.00
3917;BME280;1973;50.518;7.318;2023-07-30T05:14:53;100447.25;;;18.18;100.00
3917;BME280;1973;50.518;7.318;2023-07-30T05:17:20;100439.72;;;18.19;100.00
3917;BME280;1973;50.518;7.318;2023-07-30T05:19:47;100440.88;;;18.23;100.00
3917;BME280;1973;50.518;7.318;2023-07-30T05:22:13;100436.97;;;18.24;100.00
3917;BME280;1973;50.518;7.318;2023-07-30T05:24:40;100430.00;;;18.26;100.00
3917;BME280;1973;50.518;7.318;2023-07-30T05:27:06;100438.09;;;18.28;100.00
3917;BME280;1973;50.518;7.318;2023-07-30T05:29:33;100433.66;;;18.32;100.00
3917;BME280;1973;50.518;7.318;2023-07-30T05:32:00;100435.88;;;18.35;100.00
3917;BME280;1973;50.518;7.318;2023-07-30T05:34:27;100437.28;;;18.37;100.00
3917;BME280;1973;50.518;7.318;2023-07-30T05:36:53;100427.25;;;18.41;100.00
3917;BME280;1973;50.518;7.318;2023-07-30T05:39:20;100429.22;;;18.46;100.00
3917;BME280;1973;50.518;7.318;2023-07-30T05:41:46;100424.50;;;18.52;100.00
3917;BME280;1973;50.518;7.318;2023-07-30T05:44:13;100428.69;;;18.59;100.00
3917;BME280;1973;50.518;7.318;2023-07-30T05:46:39;100430.09;;;18.67;100.00
3917;BME280;1973;50.518;7.318;2023-07-30T05:49:06;100432.31;;;18.75;100.00
3917;BME280;1973;50.518;7.318;2023-07-30T05:51:32;100449.34;;;18.78;100.00
3917;BME280;1973;50.518;7.318;2023-07-30T05:53:59;100443.78;;;18.83;100.00
3917;BME280;1973;50.518;7.318;2023-07-30T05:56:25;100435.38;;;18.88;100.00
3917;BME280;1973;50.518;7.318;2023-07-30T05:58:52;100433.72;;;18.92;100.00
3917;BME280;1973;50.518;7.318;2023-07-30T06:01:20;100446.00;;;18.96;100.00
3917;BME280;1973;50.518;7.318;2023-07-30T06:03:46;100447.13;;;19.01;100.00
3917;BME280;1973;50.518;7.318;2023-07-30T06:06:13;100455.50;;;19.06;100.00
3917;BME280;1973;50.518;7.318;2023-07-30T06:08:39;100458.56;;;19.09;100.00
3917;BME280;1973;50.518;7.318;2023-07-30T06:11:06;100455.47;;;19.11;100.00
3917;BME280;1973;50.518;7.318;2023-07-30T06:13:32;100458.00;;;19.12;100.00
3917;BME280;1973;50.518;7.318;2023-07-30T06:15:59;100468.88;;;19.14;100.00
3917;BME280;1973;50.518;7.318;2023-07-30T06:18:26;100465.78;;;19.15;100.00
3917;BME280;1973;50.518;7.318;2023-07-30T06:20:52;100467.47;;;19.16;100.00
3917;BME280;1973;50.518;7.318;2023-07-30T06:23:19;100466.38;;;19.17;100.00
3917;BME280;1973;50.518;7.318;2023-07-30T06:25:45;100472.50;;;19.19;100.00
3917;BME280;1973;50.518;7.318;2023-07-30T06:28:12;100468.59;;;19.20;100.00
3917;BME280;1973;50.518;7.318;2023-07-30T06:30:39;100471.66;;;19.19;100.00
3917;BME280;1973;50.518;7.318;2023-07-30T06:33:06;100477.25;;;19.19;100.00
3917;BME280;1973;50.518;7.318;2023-07-30T06:35:32;100466.91;;;19.19;100.00
3917;BME280;1973;50.518;7.318;2023-07-30T06:37:59;100470.53;;;19.20;100.00
3917;BME280;1973;50.518;7.318;2023-07-30T06:40:26;100473.06;;;19.21;100.00
3917;BME280;1973;50.518;7.318;2023-07-30T06:42:53;100475.03;;;19.21;100.00
3917;BME280;1973;50.518;7.318;2023-07-30T06:45:20;100476.66;;;19.22;100.00
3917;BME280;1973;50.518;7.318;2023-07-30T06:47:46;100479.19;;;19.23;100.00
3917;BME280;1973;50.518;7.318;2023-07-30T06:50:13;100489.53;;;19.23;100.00
3917;BME280;1973;50.518;7.318;2023-07-30T06:52:39;100494.25;;;19.22;100.00
3917;BME280;1973;50.518;7.318;2023-07-30T06:55:06;100495.66;;;19.20;100.00
3917;BME280;1973;50.518;7.318;2023-07-30T06:57:33;100500.13;;;19.16;100.00
3917;BME280;1973;50.518;7.318;2023-07-30T06:59:59;100502.38;;;19.14;100.00
3917;BME280;1973;50.518;7.318;2023-07-30T07:02:26;100500.41;;;19.09;100.00
3917;BME280;1973;50.518;7.318;2023-07-30T07:04:54;100502.63;;;19.07;100.00
3917;BME280;1973;50.518;7.318;2023-07-30T07:07:20;100499.56;;;19.04;100.00
3917;BME280;1973;50.518;7.318;2023-07-30T07:09:47;100502.91;;;19.01;100.00
3917;BME280;1973;50.518;7.318;2023-07-30T07:12:13;100501.25;;;18.94;100.00
3917;BME280;1973;50.518;7.318;2023-07-30T07:14:40;100510.72;;;18.88;100.00
3917;BME280;1973;50.518;7.318;2023-07-30T07:17:08;100507.09;;;18.83;100.00
3917;BME280;1973;50.518;7.318;2023-07-30T07:19:35;100510.72;;;18.78;100.00
3917;BME280;1973;50.518;7.318;2023-07-30T07:22:06;100506.25;;;18.72;100.00
3917;BME280;1973;50.518;7.318;2023-07-30T07:24:32;100513.22;;;18.70;100.00
3917;BME280;1973;50.518;7.318;2023-07-30T07:26:59;100515.44;;;18.68;100.00
3917;BME280;1973;50.518;7.318;2023-07-30T07:29:25;100524.06;;;18.66;100.00
3917;BME280;1973;50.518;7.318;2023-07-30T07:31:52;100532.44;;;18.61;100.00
3917;BME280;1973;50.518;7.318;2023-07-30T07:34:19;100532.16;;;18.58;100.00
3917;BME280;1973;50.518;7.318;2023-07-30T07:36:46;100540.78;;;18.51;100.00
3917;BME280;1973;50.518;7.318;2023-07-30T07:39:13;100544.88;;;18.38;100.00
3917;BME280;1973;50.518;7.318;2023-07-30T07:41:39;100559.09;;;18.32;100.00
3917;BME280;1973;50.518;7.318;2023-07-30T07:44:06;100555.47;;;18.31;100.00
3917;BME280;1973;50.518;7.318;2023-07-30T07:46:32;100569.06;;;18.23;100.00
3917;BME280;1973;50.518;7.318;2023-07-30T07:48:59;100575.66;;;18.02;100.00
3917;BME280;1973;50.518;7.318;2023-07-30T07:51:26;100585.59;;;17.87;100.00
3917;BME280;1973;50.518;7.318;2023-07-30T07:53:52;100595.50;;;17.68;100.00
3917;BME280;1973;50.518;7.318;2023-07-30T07:56:19;100589.47;;;17.49;100.00
3917;BME280;1973;50.518;7.318;2023-07-30T07:58:45;100573.56;;;17.45;100.00
3917;BME280;1973;50.518;7.318;2023-07-30T08:01:12;100573.53;;;17.40;100.00
3917;BME280;1973;50.518;7.318;2023-07-30T08:03:38;100561.81;;;17.38;100.00
3917;BME280;1973;50.518;7.318;2023-07-30T08:06:05;100554.06;;;17.40;100.00
3917;BME280;1973;50.518;7.318;2023-07-30T08:08:32;100558.53;;;17.46;100.00
3917;BME280;1973;50.518;7.318;2023-07-30T08:11:04;100559.16;;;17.53;100.00
3917;BME280;1973;50.518;7.318;2023-07-30T08:13:31;100557.00;;;17.60;100.00
3917;BME280;1973;50.518;7.318;2023-07-30T08:15:58;100558.44;;;17.68;100.00
3917;BME280;1973;50.518;7.318;2023-07-30T08:18:24;100562.97;;;17.79;100.00
3917;BME280;1973;50.518;7.318;2023-07-30T08:20:51;100559.44;;;17.93;100.00
3917;BME280;1973;50.518;7.318;2023-07-30T08:23:17;100555.06;;;18.08;100.00
3917;BME280;1973;50.518;7.318;2023-07-30T08:25:44;100560.16;;;18.21;100.00
3917;BME280;1973;50.518;7.318;2023-07-30T08:28:11;100562.72;;;18.32;100.00
3917;BME280;1973;50.518;7.318;2023-07-30T08:30:37;100558.00;;;18.43;100.00
3917;BME280;1973;50.518;7.318;2023-07-30T08:33:04;100565.00;;;18.51;100.00
3917;BME280;1973;50.518;7.318;2023-07-30T08:35:30;100563.13;;;18.61;100.00
3917;BME280;1973;50.518;7.318;2023-07-30T08:37:57;100558.16;;;18.73;100.00
3917;BME280;1973;50.518;7.318;2023-07-30T08:40:24;100565.41;;;18.84;100.00
3917;BME280;1973;50.518;7.318;2023-07-30T08:42:51;100559.28;;;18.98;100.00
3917;BME280;1973;50.518;7.318;2023-07-30T08:45:19;100562.94;;;19.08;100.00
3917;BME280;1973;50.518;7.318;2023-07-30T08:47:46;100566.84;;;19.17;100.00
3917;BME280;1973;50.518;7.318;2023-07-30T08:50:13;100564.59;;;19.29;100.00
3917;BME280;1973;50.518;7.318;2023-07-30T08:52:40;100561.31;;;19.42;100.00
3917;BME280;1973;50.518;7.318;2023-07-30T08:55:07;100566.03;;;19.52;100.00
3917;BME280;1973;50.518;7.318;2023-07-30T08:57:36;100573.28;;;19.63;100.00
3917;BME280;1973;50.518;7.318;2023-07-30T09:00:06;100572.72;;;19.71;100.00
3917;BME280;1973;50.518;7.318;2023-07-30T09:02:47;100577.75;;;19.59;100.00
3917;BME280;1973;50.518;7.318;2023-07-30T09:05:14;100587.00;;;19.55;100.00
3917;BME280;1973;50.518;7.318;2023-07-30T09:07:41;100596.78;;;19.47;100.00
3917;BME280;1973;50.518;7.318;2023-07-30T09:10:08;100593.41;;;19.40;100.00
3917;BME280;1973;50.518;7.318;2023-07-30T09:12:35;100588.13;;;19.43;100.00
3917;BME280;1973;50.518;7.318;2023-07-30T09:15:03;100590.06;;;19.48;100.00
3917;BME280;1973;50.518;7.318;2023-07-30T09:17:33;100588.09;;;19.54;100.00
3917;BME280;1973;50.518;7.318;2023-07-30T09:20:02;100597.31;;;19.64;100.00
3917;BME280;1973;50.518;7.318;2023-07-30T09:22:32;100588.34;;;19.77;100.00
3917;BME280;1973;50.518;7.318;2023-07-30T09:25:08;100591.41;;;19.81;100.00
3917;BME280;1973;50.518;7.318;2023-07-30T09:27:35;100587.50;;;19.87;100.00
3917;BME280;1973;50.518;7.318;2023-07-30T09:30:03;100598.97;;;19.75;100.00
3917;BME280;1973;50.518;7.318;2023-07-30T09:32:33;100597.28;;;19.89;100.00
3917;BME280;1973;50.518;7.318;2023-07-30T09:35:08;100600.03;;;20.05;100.00
3917;BME280;1973;50.518;7.318;2023-07-30T09:37:39;100603.91;;;20.24;100.00
3917;BME280;1973;50.518;7.318;2023-07-30T09:40:08;100596.09;;;20.31;100.00
3917;BME280;1973;50.518;7.318;2023-07-30T09:42:36;100601.03;;;20.54;100.00
3917;BME280;1973;50.518;7.318;2023-07-30T09:45:07;100585.97;;;20.45;100.00
3917;BME280;1973;50.518;7.318;2023-07-30T09:47:37;100592.06;;;20.57;100.00
3917;BME280;1973;50.518;7.318;2023-07-30T09:50:04;100590.50;;;20.31;100.00
3917;BME280;1973;50.518;7.318;2023-07-30T09:52:30;100591.13;;;20.03;100.00
3917;BME280;1973;50.518;7.318;2023-07-30T09:54:57;100600.06;;;19.84;100.00
3917;BME280;1973;50.518;7.318;2023-07-30T09:57:25;100593.94;;;19.62;100.00
3917;BME280;1973;50.518;7.318;2023-07-30T09:59:51;100599.00;;;19.65;100.00
3917;BME280;1973;50.518;7.318;2023-07-30T10:02:20;100602.91;;;19.59;100.00
3917;BME280;1973;50.518;7.318;2023-07-30T10:04:49;100604.31;;;19.62;100.00
3917;BME280;1973;50.518;7.318;2023-07-30T10:07:20;100604.56;;;19.75;100.00
3917;BME280;1973;50.518;7.318;2023-07-30T10:09:50;100608.44;;;19.84;100.00
3917;BME280;1973;50.518;7.318;2023-07-30T10:12:27;100619.09;;;19.87;100.00
3917;BME280;1973;50.518;7.318;2023-07-30T10:14:54;100622.16;;;19.86;100.00
3917;BME280;1973;50.518;7.318;2023-07-30T10:17:21;100602.31;;;19.98;100.00
3917;BME280;1973;50.518;7.318;2023-07-30T10:19:49;100617.06;;;20.18;100.00
3917;BME280;1973;50.518;7.318;2023-07-30T10:25:02;100608.91;;;20.47;100.00
3917;BME280;1973;50.518;7.318;2023-07-30T10:27:40;100620.06;;;20.52;100.00
3917;BME280;1973;50.518;7.318;2023-07-30T10:30:15;100613.53;;;20.72;100.00
3917;BME280;1973;50.518;7.318;2023-07-30T10:33:03;100619.56;;;20.25;100.00
3917;BME280;1973;50.518;7.318;2023-07-30T10:35:53;100622.38;;;20.30;100.00
3917;BME280;1973;50.518;7.318;2023-07-30T10:38:21;100624.22;;;20.65;100.00
3917;BME280;1973;50.518;7.318;2023-07-30T10:41:05;100607.53;;;20.99;100.00
3917;BME280;1973;50.518;7.318;2023-07-30T10:43:41;100607.34;;;21.29;100.00
3917;BME280;1973;50.518;7.318;2023-07-30T10:46:09;100598.75;;;21.54;100.00
3917;BME280;1973;50.518;7.318;2023-07-30T10:48:37;100594.72;;;21.65;100.00
3917;BME280;1973;50.518;7.318;2023-07-30T10:51:07;100597.34;;;21.80;100.00
3917;BME280;1973;50.518;7.318;2023-07-30T10:53:33;100595.59;;;21.90;99.32
3917;BME280;1973;50.518;7.318;2023-07-30T10:56:08;100580.97;;;21.98;97.13
3917;BME280;1973;50.518;7.318;2023-07-30T10:58:36;100612.44;;;21.90;97.08
3917;BME280;1973;50.518;7.318;2023-07-30T11:01:04;100603.75;;;21.91;92.20
3917;BME280;1973;50.518;7.318;2023-07-30T11:03:32;100595.97;;;21.83;91.39
3917;BME280;1973;50.518;7.318;2023-07-30T11:06:03;100596.16;;;21.92;87.90
3917;BME280;1973;50.518;7.318;2023-07-30T11:08:41;100606.81;;;21.90;80.74
3917;BME280;1973;50.518;7.318;2023-07-30T11:11:09;100621.22;;;21.78;86.32
3917;BME280;1973;50.518;7.318;2023-07-30T11:16:07;100605.13;;;21.89;83.40
3917;BME280;1973;50.518;7.318;2023-07-30T11:18:35;100604.56;;;21.92;83.25
3917;BME280;1973;50.518;7.318;2023-07-30T11:21:06;100601.72;;;21.97;78.61
3917;BME280;1973;50.518;7.318;2023-07-30T11:23:34;100596.84;;;22.07;84.26
3917;BME280;1973;50.518;7.318;2023-07-30T11:26:02;100603.41;;;22.21;83.32
3917;BME280;1973;50.518;7.318;2023-07-30T11:28:37;100611.91;;;22.16;72.16
3917;BME280;1973;50.518;7.318;2023-07-30T11:31:26;100608.31;;;22.11;72.03
3917;BME280;1973;50.518;7.318;2023-07-30T11:33:54;100598.97;;;22.20;77.64
3917;BME280;1973;50.518;7.318;2023-07-30T11:36:22;100602.25;;;22.27;76.07
3917;BME280;1973;50.518;7.318;2023-07-30T11:38:51;100593.28;;;22.49;73.74
3917;BME280;1973;50.518;7.318;2023-07-30T11:41:19;100607.84;;;22.51;75.28
3917;BME280;1973;50.518;7.318;2023-07-30T11:43:48;100595.34;;;22.62;72.51
3917;BME280;1973;50.518;7.318;2023-07-30T11:46:16;100603.16;;;22.65;68.40
3917;BME280;1973;50.518;7.318;2023-07-30T11:48:48;100609.28;;;22.49;59.32
3917;BME280;1973;50.518;7.318;2023-07-30T11:51:28;100610.34;;;22.76;58.56
3917;BME280;1973;50.518;7.318;2023-07-30T11:53:59;100616.19;;;22.56;59.89
3917;BME280;1973;50.518;7.318;2023-07-30T11:56:32;100600.78;;;22.77;59.60
3917;BME280;1973;50.518;7.318;2023-07-30T11:59:01;100599.59;;;22.84;61.19
3917;BME280;1973;50.518;7.318;2023-07-30T12:01:31;100603.00;;;22.80;59.77
3917;BME280;1973;50.518;7.318;2023-07-30T12:04:01;100613.69;;;22.78;60.40
3917;BME280;1973;50.518;7.318;2023-07-30T12:09:15;100600.66;;;23.06;55.19
3917;BME280;1973;50.518;7.318;2023-07-30T12:14:19;100603.41;;;23.49;56.57
3917;BME280;1973;50.518;7.318;2023-07-30T12:16:46;100611.69;;;23.72;55.43
3917;BME280;1973;50.518;7.318;2023-07-30T12:19:12;100605.50;;;23.75;53.76
3917;BME280;1973;50.518;7.318;2023-07-30T12:21:39;100602.91;;;23.93;53.82
3917;BME280;1973;50.518;7.318;2023-07-30T12:24:06;100601.06;;;23.69;53.65
3917;BME280;1973;50.518;7.318;2023-07-30T12:26:32;100599.34;;;23.55;53.22
3917;BME280;1973;50.518;7.318;2023-07-30T12:28:59;100595.19;;;23.85;53.68
3917;BME280;1973;50.518;7.318;2023-07-30T12:31:26;100588.78;;;23.98;53.11
3917;BME280;1973;50.518;7.318;2023-07-30T12:33:52;100603.38;;;23.67;51.55
3917;BME280;1973;50.518;7.318;2023-07-30T12:36:19;100600.38;;;23.45;51.44
3917;BME280;1973;50.518;7.318;2023-07-30T12:38:45;100601.47;;;23.63;51.05
3917;BME280;1973;50.518;7.318;2023-07-30T12:41:12;100601.94;;;23.84;50.09
3917;BME280;1973;50.518;7.318;2023-07-30T12:43:39;100593.28;;;23.80;50.49
3917;BME280;1973;50.518;7.318;2023-07-30T12:46:06;100607.88;;;23.68;50.52
3917;BME280;1973;50.518;7.318;2023-07-30T12:48:32;100620.78;;;23.32;49.41
3917;BME280;1973;50.518;7.318;2023-07-30T12:50:59;100613.56;;;23.26;49.91
3917;BME280;1973;50.518;7.318;2023-07-30T12:53:25;100618.13;;;23.22;50.10
3917;BME280;1973;50.518;7.318;2023-07-30T12:55:52;100608.00;;;23.21;50.21
3917;BME280;1973;50.518;7.318;2023-07-30T12:58:19;100601.88;;;23.19;50.09
3917;BME280;1973;50.518;7.318;2023-07-30T13:00:45;100611.00;;;23.48;50.42
3917;BME280;1973;50.518;7.318;2023-07-30T13:03:12;100611.81;;;23.30;51.10
3917;BME280;1973;50.518;7.318;2023-07-30T13:05:39;100611.41;;;23.42;51.79
3917;BME280;1973;50.518;7.318;2023-07-30T13:08:05;100610.13;;;23.66;50.69
3917;BME280;1973;50.518;7.318;2023-07-30T13:10:32;100606.38;;;24.03;50.08
3917;BME280;1973;50.518;7.318;2023-07-30T13:12:59;100600.31;;;24.42;48.99
3917;BME280;1973;50.518;7.318;2023-07-30T13:15:25;100588.06;;;24.88;48.71